Ghaziabad Weather



Ghaziabad's Current Weather

Temprature 30.15o clear sky

clear sky

Rain: 0 %

Min Temprature30.15o
Max Temprature30.15o
Humidity35
Wind Speed1.94 m/h
Sun Rise05:40:18
Sun Set18:43:36
Current Time: 23-Aug-2019 06:20:26
Lat/Lon: 30.4, 72.76




Ghaziabad's Geo Location



Ghaziabad's Weather Forecast

Time Overall Temp Min Temp Max Temp Humidity Wind Speed Rain
23-Aug-2019 (Fri)
08:00:00 clear sky 34.500 34.497 34.500 28 2.22 m/h 0 %
11:00:00 clear sky 40.450 40.450 40.450 20 3.26 m/h 0 %
14:00:00 broken clouds 43.930 43.930 43.931 14 1.25 m/h 0 %
17:00:00 broken clouds 42.510 42.510 42.511 14 0.63 m/h 0 %
20:00:00 scattered clouds 36.150 36.150 36.150 25 4.58 m/h 0 %
23:00:00 few clouds 33.642 33.642 33.642 29 2.6 m/h 0 %
24-Aug-2019 (Sat)
02:00:00 clear sky 32.131 32.131 32.131 31 1.51 m/h 0 %
05:00:00 clear sky 30.655 30.655 30.655 35 2.11 m/h 0 %
08:00:00 clear sky 35.297 35.297 35.297 29 5.5 m/h 0 %
11:00:00 clear sky 41.969 41.969 41.969 20 6.15 m/h 0 %
14:00:00 clear sky 44.169 44.169 44.169 15 5.26 m/h 0 %
17:00:00 scattered clouds 42.523 42.523 42.523 16 4.42 m/h 0 %
20:00:00 broken clouds 37.250 37.250 37.250 23 5.73 m/h 0 %
23:00:00 scattered clouds 35.069 35.069 35.069 25 5.15 m/h 0 %
25-Aug-2019 (Sun)
02:00:00 clear sky 33.431 33.431 33.431 29 4.83 m/h 0 %
05:00:00 clear sky 31.657 31.657 31.657 29 4.13 m/h 0 %
08:00:00 clear sky 35.614 35.614 35.614 25 4.93 m/h 0 %
11:00:00 clear sky 42.316 42.316 42.316 20 5.99 m/h 0 %
14:00:00 clear sky 45.050 45.050 45.050 13 3.63 m/h 0 %
17:00:00 scattered clouds 42.350 42.350 42.350 15 2.72 m/h 0 %
20:00:00 overcast clouds 39.081 39.081 39.081 20 7.4 m/h 0 %
23:00:00 broken clouds 35.711 35.711 35.711 25 5.13 m/h 0 %
26-Aug-2019 (Mon)
02:00:00 clear sky 32.565 32.565 32.565 31 3.55 m/h 0 %
05:00:00 clear sky 31.450 31.450 31.450 35 3.59 m/h 0 %
08:00:00 clear sky 35.567 35.567 35.567 29 3.28 m/h 0 %
11:00:00 clear sky 41.972 41.972 41.972 18 3.02 m/h 0 %
14:00:00 broken clouds 44.884 44.884 44.884 13 3.14 m/h 0 %
17:00:00 broken clouds 43.820 43.820 43.820 14 2.24 m/h 0 %
20:00:00 broken clouds 37.672 37.672 37.672 23 3.22 m/h 0 %
23:00:00 scattered clouds 34.714 34.714 34.714 39 5.16 m/h 0 %
27-Aug-2019 (Tue)
02:00:00 broken clouds 32.716 32.716 32.716 45 3.58 m/h 0 %
05:00:00 broken clouds 31.950 31.950 31.950 50 3.71 m/h 0 %
08:00:00 broken clouds 35.335 35.335 35.335 43 4.84 m/h 0 %
11:00:00 broken clouds 40.736 40.736 40.736 28 3.79 m/h 0 %
14:00:00 broken clouds 41.336 41.336 41.336 25 3.59 m/h 0 %
17:00:00 overcast clouds 40.465 40.465 40.465 26 3.82 m/h 0 %
20:00:00 light rain 35.150 35.150 35.150 38 2.68 m/h 13 %
23:00:00 light rain 33.950 33.950 33.950 41 2.67 m/h 6 %
28-Aug-2019 (Wed)
02:00:00 clear sky 32.157 32.157 32.157 50 2.35 m/h 0 %
05:00:00 clear sky 31.372 31.372 31.372 54 1.77 m/h 0 %

Famous Cities (61)